createdAt,value
2018-05-24T00:01:45.257Z,66.33
2018-05-24T00:04:12.815Z,66.52
2018-05-24T00:06:40.379Z,66.59
2018-05-24T00:09:07.913Z,66.92
2018-05-24T00:11:35.474Z,66.98
2018-05-24T00:14:03.062Z,67.60
2018-05-24T00:16:30.632Z,67.70
2018-05-24T00:18:58.174Z,68.25
2018-05-24T00:21:25.851Z,68.24
2018-05-24T00:23:53.535Z,68.43
2018-05-24T00:26:21.073Z,68.61
2018-05-24T00:28:48.645Z,68.85
2018-05-24T00:31:16.216Z,69.36
2018-05-24T00:33:43.769Z,69.89
2018-05-24T00:36:11.860Z,70.07
2018-05-24T00:38:39.403Z,70.30
2018-05-24T00:41:06.944Z,70.28
2018-05-24T00:43:34.514Z,70.35
2018-05-24T00:46:02.076Z,70.18
2018-05-24T00:48:29.629Z,70.04
2018-05-24T00:50:57.237Z,69.99
2018-05-24T00:53:24.789Z,69.93
2018-05-24T00:55:52.342Z,69.77
2018-05-24T00:58:19.924Z,69.78
2018-05-24T01:00:47.497Z,69.77
2018-05-24T01:03:15.050Z,70.04
2018-05-24T01:05:42.984Z,70.39
2018-05-24T01:08:10.555Z,70.48
2018-05-24T01:10:38.117Z,70.61
2018-05-24T01:13:05.900Z,70.92
2018-05-24T01:15:33.456Z,70.73
2018-05-24T01:18:01.002Z,70.70
2018-05-24T01:20:28.582Z,70.83
2018-05-24T01:22:56.148Z,70.97
2018-05-24T01:25:23.705Z,71.18
2018-05-24T01:27:51.446Z,71.40
2018-05-24T01:30:18.986Z,71.68
2018-05-24T01:32:46.527Z,71.84
2018-05-24T01:35:14.097Z,71.94
2018-05-24T01:37:50.506Z,72.07
2018-05-24T01:40:18.184Z,72.15
2018-05-24T01:42:45.740Z,72.17
2018-05-24T01:45:13.301Z,72.21
2018-05-24T01:47:40.873Z,72.28
2018-05-24T01:50:08.451Z,72.24
2018-05-24T01:52:36.014Z,72.36
2018-05-24T01:55:03.652Z,72.38
2018-05-24T01:57:31.220Z,72.90
2018-05-24T01:59:58.790Z,72.85
2018-05-24T02:02:26.392Z,73.25
2018-05-24T02:04:53.937Z,73.44
2018-05-24T02:07:21.482Z,73.74
2018-05-24T02:09:49.068Z,74.02
2018-05-24T02:12:16.618Z,73.63
2018-05-24T02:14:44.199Z,73.55
2018-05-24T02:17:11.923Z,73.55
2018-05-24T02:19:39.472Z,73.51
2018-05-24T02:22:07.024Z,73.46
2018-05-24T02:24:34.607Z,73.46
2018-05-24T02:27:02.160Z,73.44
2018-05-24T02:29:29.719Z,73.44
2018-05-24T02:31:57.612Z,73.52
2018-05-24T02:34:25.160Z,73.65
2018-05-24T02:36:52.720Z,73.88
2018-05-24T02:39:20.300Z,74.04
2018-05-24T02:41:47.854Z,74.15
2018-05-24T02:44:15.405Z,74.30
2018-05-24T02:46:42.989Z,74.36
2018-05-24T02:49:10.586Z,74.34
2018-05-24T02:51:38.142Z,74.46
2018-05-24T02:54:05.721Z,74.54
2018-05-24T02:56:33.276Z,74.61
2018-05-24T02:59:00.920Z,74.68
2018-05-24T03:01:28.479Z,74.74
2018-05-24T03:03:56.033Z,74.77
2018-05-24T03:06:23.774Z,74.84
2018-05-24T03:08:51.328Z,74.87
2018-05-24T03:11:18.918Z,74.83
2018-05-24T03:13:46.518Z,74.81
2018-05-24T03:16:14.079Z,74.87
2018-05-24T03:18:41.629Z,74.87
2018-05-24T03:21:09.360Z,75.04
2018-05-24T03:23:36.907Z,75.58
2018-05-24T03:26:04.520Z,75.32
2018-05-24T03:28:32.201Z,75.45
2018-05-24T03:31:00.635Z,75.41
2018-05-24T03:33:28.191Z,75.26
2018-05-24T03:35:55.784Z,74.98
2018-05-24T03:38:23.322Z,74.86
2018-05-24T03:40:50.876Z,74.73
2018-05-24T03:43:18.483Z,74.51
2018-05-24T03:45:46.050Z,74.46
2018-05-24T03:48:13.601Z,74.24
2018-05-24T03:50:41.518Z,74.49
2018-05-24T03:53:09.074Z,74.31
2018-05-24T03:55:36.617Z,74.27
2018-05-24T03:58:04.220Z,74.17
2018-05-24T04:00:43.523Z,73.97
2018-05-24T04:03:22.831Z,73.76
2018-05-24T04:05:50.383Z,73.57
2018-05-24T04:08:17.932Z,73.33
2018-05-24T04:10:46.759Z,73.11
2018-05-24T04:13:14.303Z,73.12
2018-05-24T04:15:41.849Z,73.19
2018-05-24T04:18:09.574Z,73.25
2018-05-24T04:20:37.122Z,73.24
2018-05-24T04:23:04.677Z,73.01
2018-05-24T04:25:32.414Z,72.69
2018-05-24T04:27:59.967Z,72.51
2018-05-24T04:30:27.518Z,72.24
2018-05-24T04:32:55.124Z,72.29
2018-05-24T04:35:22.668Z,72.19
2018-05-24T04:37:50.211Z,71.91
2018-05-24T04:40:17.937Z,71.92
2018-05-24T04:42:45.490Z,71.82
2018-05-24T04:45:13.052Z,71.89
2018-05-24T04:47:40.667Z,71.24
2018-05-24T04:50:08.230Z,71.10
2018-05-24T04:52:35.804Z,71.11
2018-05-24T04:55:03.390Z,70.31
2018-05-24T04:57:30.937Z,69.97
2018-05-24T04:59:58.484Z,69.88
2018-05-24T05:02:26.080Z,68.85
2018-05-24T05:04:53.631Z,68.22
2018-05-24T05:07:21.191Z,67.43
2018-05-24T05:09:49.132Z,65.87
2018-05-24T05:12:16.693Z,64.58
2018-05-24T05:14:44.328Z,63.45
2018-05-24T05:17:12.007Z,63.24
2018-05-24T05:19:39.619Z,61.65
2018-05-24T05:22:07.137Z,60.10
2018-05-24T05:24:35.270Z,57.94
2018-05-24T05:27:02.837Z,57.08
2018-05-24T05:29:30.384Z,56.32
2018-05-24T05:31:57.993Z,56.52
2018-05-24T05:34:25.562Z,56.37
2018-05-24T05:36:53.107Z,55.41
2018-05-24T05:39:20.692Z,56.03
2018-05-24T05:41:48.248Z,55.46
2018-05-24T05:44:15.812Z,55.31
2018-05-24T05:46:43.397Z,54.77
2018-05-24T05:49:10.954Z,53.51
2018-05-24T05:51:38.513Z,51.44
2018-05-24T05:54:06.276Z,49.88
2018-05-24T05:56:33.833Z,49.74
2018-05-24T05:59:01.371Z,48.67
2018-05-24T06:01:28.930Z,47.66
2018-05-24T06:03:56.471Z,46.06
2018-05-24T06:06:24.057Z,44.97
2018-05-24T06:08:51.618Z,44.63
2018-05-24T06:11:19.170Z,44.67
2018-05-24T06:13:46.930Z,46.79
2018-05-24T06:16:14.464Z,46.57
2018-05-24T06:18:42.017Z,45.00
2018-05-24T06:21:09.621Z,45.61
2018-05-24T06:23:37.180Z,46.29
2018-05-24T06:26:04.745Z,47.69
2018-05-24T06:28:32.395Z,47.83
2018-05-24T06:30:59.893Z,48.88
2018-05-24T06:33:27.437Z,49.49
2018-05-24T06:35:55.350Z,51.66
2018-05-24T06:38:22.926Z,52.51
2018-05-24T06:40:50.467Z,52.88
2018-05-24T06:43:18.198Z,52.52
2018-05-24T06:45:45.756Z,54.35
2018-05-24T06:48:13.312Z,54.68
2018-05-24T06:50:41.008Z,55.17
2018-05-24T06:53:08.573Z,55.99
2018-05-24T06:55:36.124Z,56.96
2018-05-24T06:58:03.735Z,56.51
2018-05-24T07:00:31.291Z,56.56
2018-05-24T07:02:58.849Z,56.69
2018-05-24T07:05:26.569Z,57.37
2018-05-24T07:07:54.108Z,57.54
2018-05-24T07:10:21.659Z,58.37
2018-05-24T07:12:49.256Z,59.67
2018-05-24T07:15:16.800Z,60.52
2018-05-24T07:17:44.358Z,59.57
2018-05-24T07:20:12.296Z,60.97
2018-05-24T07:22:39.839Z,59.34
2018-05-24T07:25:07.387Z,60.55
2018-05-24T07:27:34.986Z,59.89
2018-05-24T07:30:02.537Z,61.16
2018-05-24T07:32:30.084Z,58.69
2018-05-24T07:34:57.671Z,58.17
2018-05-24T07:37:25.218Z,58.09
2018-05-24T07:39:52.772Z,58.09
2018-05-24T07:42:20.339Z,56.88
2018-05-24T07:44:47.886Z,55.78
2018-05-24T07:47:15.433Z,53.36
2018-05-24T07:49:43.205Z,51.97
2018-05-24T07:52:10.764Z,53.08
2018-05-24T07:54:38.319Z,53.32
2018-05-24T07:57:05.912Z,53.53
2018-05-24T07:59:33.467Z,52.32
2018-05-24T08:02:01.013Z,51.70
2018-05-24T08:04:28.587Z,51.68
2018-05-24T08:06:56.149Z,51.42
2018-05-24T08:09:24.053Z,50.19
2018-05-24T08:11:51.807Z,49.82
2018-05-24T08:14:19.360Z,47.89
2018-05-24T08:16:46.938Z,47.61
2018-05-24T08:19:14.618Z,48.45
2018-05-24T08:21:42.172Z,48.52
2018-05-24T08:24:09.726Z,46.97
2018-05-24T08:26:37.634Z,45.70
2018-05-24T08:29:05.214Z,46.69
2018-05-24T08:31:32.760Z,45.48
2018-05-24T08:34:00.344Z,45.34
2018-05-24T08:36:27.904Z,46.15
2018-05-24T08:38:55.444Z,46.18
2018-05-24T08:41:23.155Z,47.08
2018-05-24T08:43:50.719Z,44.94
2018-05-24T08:46:18.269Z,45.31
2018-05-24T08:48:46.034Z,45.09
2018-05-24T08:51:13.573Z,44.36
2018-05-24T08:53:41.119Z,45.87
2018-05-24T08:56:08.703Z,46.31
2018-05-24T08:58:36.249Z,46.49
2018-05-24T09:01:03.832Z,46.56
2018-05-24T09:03:31.565Z,46.58
2018-05-24T09:05:59.116Z,47.54
2018-05-24T09:08:26.658Z,48.74
2018-05-24T09:10:54.249Z,49.08
2018-05-24T09:13:21.830Z,48.79
2018-05-24T09:15:49.377Z,48.13
2018-05-24T09:18:17.052Z,47.82
2018-05-24T09:20:44.597Z,47.93
2018-05-24T09:23:12.158Z,47.93
2018-05-24T09:25:39.890Z,48.18
2018-05-24T09:28:07.502Z,48.28
2018-05-24T09:30:35.091Z,47.14
2018-05-24T09:33:02.693Z,49.12
2018-05-24T09:35:30.274Z,48.17
2018-05-24T09:37:57.830Z,47.38
2018-05-24T09:40:25.503Z,46.71
2018-05-24T09:42:53.053Z,48.03
2018-05-24T09:45:20.605Z,47.44
2018-05-24T09:47:48.529Z,49.46
2018-05-24T09:50:16.089Z,49.44
2018-05-24T09:52:43.637Z,49.94
2018-05-24T09:55:11.373Z,50.07
2018-05-24T09:57:39.043Z,51.17
2018-05-24T10:00:06.628Z,51.48
2018-05-24T10:02:34.186Z,51.21
2018-05-24T10:05:01.766Z,52.03
2018-05-24T10:07:29.372Z,53.01
2018-05-24T10:09:56.958Z,53.43
2018-05-24T10:12:24.528Z,54.60
2018-05-24T10:14:52.257Z,55.59
2018-05-24T10:17:19.814Z,55.41
2018-05-24T10:19:47.402Z,55.50
2018-05-24T10:22:15.013Z,55.49
2018-05-24T10:24:42.558Z,56.55
2018-05-24T10:27:10.108Z,57.09
2018-05-24T10:29:37.774Z,57.92
2018-05-24T10:32:05.334Z,58.69
2018-05-24T10:34:32.888Z,60.93
2018-05-24T10:37:00.464Z,61.52
2018-05-24T10:39:28.021Z,60.97
2018-05-24T10:41:55.567Z,60.50
2018-05-24T10:44:23.205Z,60.06
2018-05-24T10:46:50.749Z,60.34
2018-05-24T10:49:18.288Z,60.70
2018-05-24T10:51:45.883Z,60.12
2018-05-24T10:54:13.540Z,59.57
2018-05-24T10:56:41.074Z,60.68
2018-05-24T10:59:08.649Z,60.13
2018-05-24T11:01:36.236Z,60.32
2018-05-24T11:04:03.826Z,61.67
2018-05-24T11:06:31.576Z,60.43
2018-05-24T11:08:59.121Z,59.83
2018-05-24T11:11:26.674Z,59.50
2018-05-24T11:13:54.255Z,60.48
2018-05-24T11:16:22.065Z,60.94
2018-05-24T11:18:49.627Z,60.67
2018-05-24T11:21:17.345Z,58.44
2018-05-24T11:23:44.912Z,58.47
2018-05-24T11:26:12.467Z,58.72
2018-05-24T11:28:40.369Z,58.14
2018-05-24T11:31:07.939Z,58.66
2018-05-24T11:33:35.506Z,59.08
2018-05-24T11:36:03.248Z,61.77
2018-05-24T11:38:30.820Z,62.02
2018-05-24T11:40:58.373Z,64.06
2018-05-24T11:43:26.511Z,63.63
2018-05-24T11:45:54.010Z,63.53
2018-05-24T11:48:21.557Z,62.53
2018-05-24T11:50:49.132Z,60.95
2018-05-24T11:53:16.672Z,62.84
2018-05-24T11:55:44.218Z,63.81
2018-05-24T11:58:11.808Z,63.80
2018-05-24T12:00:39.377Z,65.02
2018-05-24T12:03:06.924Z,65.17
2018-05-24T12:05:34.640Z,65.49
2018-05-24T12:08:02.185Z,65.84
2018-05-24T12:10:29.729Z,65.56
2018-05-24T12:12:57.652Z,65.19
2018-05-24T12:15:25.209Z,64.41
2018-05-24T12:17:52.764Z,63.88
2018-05-24T12:20:20.334Z,64.06
2018-05-24T12:22:47.898Z,66.21
2018-05-24T12:25:15.445Z,65.53
2018-05-24T12:27:43.341Z,66.34
2018-05-24T12:30:10.910Z,66.46
2018-05-24T12:32:38.453Z,66.41
2018-05-24T12:35:06.042Z,67.43
2018-05-24T12:37:33.591Z,68.64
2018-05-24T12:40:01.146Z,68.23
2018-05-24T12:42:28.721Z,69.38
2018-05-24T12:44:56.266Z,69.29
2018-05-24T12:47:23.830Z,71.02
2018-05-24T12:49:51.424Z,71.29
2018-05-24T12:52:19.009Z,72.29
2018-05-24T12:54:46.583Z,74.00
2018-05-24T12:57:14.156Z,73.80
2018-05-24T12:59:41.718Z,74.32
2018-05-24T13:02:09.286Z,75.33
2018-05-24T13:04:37.296Z,75.50
2018-05-24T13:07:04.862Z,76.21
2018-05-24T13:09:32.403Z,76.39
2018-05-24T13:11:59.987Z,76.28
2018-05-24T13:14:27.547Z,75.90
2018-05-24T13:16:55.168Z,74.93
2018-05-24T13:19:22.715Z,74.85
2018-05-24T13:21:50.281Z,75.08
2018-05-24T13:24:17.843Z,74.21
2018-05-24T13:26:45.572Z,75.74
2018-05-24T13:29:13.136Z,75.18
2018-05-24T13:31:40.686Z,75.97
2018-05-24T13:34:08.419Z,75.26
2018-05-24T13:36:35.983Z,73.98
2018-05-24T13:39:03.598Z,73.81
2018-05-24T13:41:31.337Z,69.58
2018-05-24T13:43:58.893Z,67.78
2018-05-24T13:46:26.452Z,64.67
2018-05-24T13:48:54.015Z,65.05
2018-05-24T13:51:21.569Z,63.83
2018-05-24T13:53:49.146Z,62.94
2018-05-24T13:56:16.855Z,61.00
2018-05-24T13:58:44.400Z,57.99
2018-05-24T14:01:11.970Z,68.42
2018-05-24T14:03:39.569Z,66.33
2018-05-24T14:06:07.114Z,65.37
2018-05-24T14:08:34.661Z,66.05
2018-05-24T14:11:02.245Z,66.74
2018-05-24T14:13:29.787Z,62.80
2018-05-24T14:15:57.335Z,60.68
2018-05-24T14:18:24.923Z,59.36
2018-05-24T14:20:52.473Z,59.57
2018-05-24T14:23:20.141Z,58.74
2018-05-24T14:25:47.820Z,56.61
2018-05-24T14:28:15.380Z,56.64
2018-05-24T14:30:42.931Z,57.66
2018-05-24T14:33:10.624Z,58.70
2018-05-24T14:35:38.172Z,57.64
2018-05-24T14:38:05.724Z,57.99
2018-05-24T14:40:33.644Z,58.14
2018-05-24T14:43:01.191Z,58.68
2018-05-24T14:45:28.732Z,57.89
2018-05-24T14:47:57.271Z,57.18
2018-05-24T14:50:24.817Z,56.81
2018-05-24T14:52:52.381Z,56.30
2018-05-24T14:55:20.314Z,56.98
2018-05-24T14:57:47.846Z,57.22
2018-05-24T15:00:15.414Z,57.28
2018-05-24T15:02:42.949Z,56.10
2018-05-24T15:05:10.503Z,55.82
2018-05-24T15:07:38.104Z,56.88
2018-05-24T15:10:05.672Z,56.76
2018-05-24T15:12:33.236Z,57.42
2018-05-24T15:15:00.809Z,57.68
2018-05-24T15:17:28.357Z,57.54
2018-05-24T15:19:55.908Z,57.34
2018-05-24T15:22:23.496Z,58.37
2018-05-24T15:24:51.055Z,59.79
2018-05-24T15:27:19.012Z,59.81
2018-05-24T15:29:46.802Z,59.10
2018-05-24T15:32:14.348Z,60.00
2018-05-24T15:34:41.893Z,61.09
2018-05-24T15:37:09.613Z,61.19
2018-05-24T15:39:37.177Z,61.99
2018-05-24T15:42:04.745Z,62.75
2018-05-24T15:44:32.377Z,62.92
2018-05-24T15:46:59.940Z,63.40
2018-05-24T15:49:27.494Z,63.09
2018-05-24T15:51:55.078Z,62.77
2018-05-24T15:54:22.642Z,62.25
2018-05-24T15:56:50.181Z,60.45
2018-05-24T15:59:18.094Z,60.48
2018-05-24T16:01:45.639Z,60.77
2018-05-24T16:04:13.204Z,61.85
2018-05-24T16:06:40.805Z,62.39
2018-05-24T16:09:08.388Z,63.14
2018-05-24T16:11:35.945Z,63.75
2018-05-24T16:14:03.689Z,63.86
2018-05-24T16:16:31.241Z,63.83
2018-05-24T16:18:58.794Z,63.71
2018-05-24T16:21:26.531Z,63.35
2018-05-24T16:23:54.077Z,61.54
2018-05-24T16:26:21.656Z,62.15
2018-05-24T16:28:49.565Z,64.37
2018-05-24T16:31:17.115Z,65.31
2018-05-24T16:33:44.665Z,66.12
2018-05-24T16:36:12.254Z,66.79
2018-05-24T16:38:39.808Z,67.18
2018-05-24T16:41:07.363Z,67.83
2018-05-24T16:43:35.143Z,68.45
2018-05-24T16:46:02.696Z,69.26
2018-05-24T16:48:30.261Z,69.46
2018-05-24T16:50:57.859Z,69.56
2018-05-24T16:53:25.443Z,69.51
2018-05-24T16:55:53.027Z,69.34
2018-05-24T16:58:20.610Z,69.63
2018-05-24T17:00:48.167Z,69.82
2018-05-24T17:03:15.722Z,70.00
2018-05-24T17:05:43.377Z,70.05
2018-05-24T17:08:10.948Z,70.22
2018-05-24T17:10:38.493Z,70.01
2018-05-24T17:13:06.086Z,70.53
2018-05-24T17:15:33.678Z,70.56
2018-05-24T17:18:01.265Z,70.93
2018-05-24T17:20:29.077Z,70.83
2018-05-24T17:22:57.357Z,70.99
2018-05-24T17:25:24.929Z,71.86
2018-05-24T17:27:52.660Z,71.83
2018-05-24T17:30:20.208Z,72.10
2018-05-24T17:32:47.779Z,72.17
2018-05-24T17:35:15.521Z,72.03
2018-05-24T17:37:43.083Z,72.11
2018-05-24T17:40:10.649Z,72.21
2018-05-24T17:42:38.592Z,72.03
2018-05-24T17:45:06.140Z,72.09
2018-05-24T17:47:33.688Z,72.21
2018-05-24T17:50:01.424Z,71.80
2018-05-24T17:52:29.011Z,71.73
2018-05-24T17:54:56.614Z,70.31
2018-05-24T17:57:24.373Z,70.66
2018-05-24T17:59:51.941Z,71.64
2018-05-24T18:02:19.519Z,72.17
2018-05-24T18:04:47.283Z,72.51
2018-05-24T18:07:14.824Z,72.63
2018-05-24T18:09:42.371Z,72.70
2018-05-24T18:12:10.126Z,72.77
2018-05-24T18:14:37.694Z,72.50
2018-05-24T18:17:05.273Z,72.44
2018-05-24T18:19:32.876Z,72.16
2018-05-24T18:22:00.479Z,72.25
2018-05-24T18:24:28.033Z,72.23
2018-05-24T18:26:55.712Z,72.19
2018-05-24T18:29:23.284Z,72.11
2018-05-24T18:31:50.847Z,72.35
2018-05-24T18:34:18.816Z,72.64
2018-05-24T18:36:46.360Z,71.66
2018-05-24T18:39:13.909Z,71.94
2018-05-24T18:41:41.525Z,72.27
2018-05-24T18:44:09.067Z,72.51
2018-05-24T18:46:36.625Z,72.55
2018-05-24T18:49:04.257Z,72.72
2018-05-24T18:51:31.826Z,72.86
2018-05-24T18:53:59.368Z,72.99
2018-05-24T18:56:26.952Z,73.08
2018-05-24T18:58:54.501Z,73.06
2018-05-24T19:01:22.046Z,72.10
2018-05-24T19:03:49.784Z,71.96
2018-05-24T19:06:17.361Z,71.98
2018-05-24T19:08:44.962Z,72.12
2018-05-24T19:11:12.777Z,72.27
2018-05-24T19:13:40.352Z,72.28
2018-05-24T19:16:07.920Z,72.51
2018-05-24T19:18:35.677Z,72.56
2018-05-24T19:21:03.239Z,72.56
2018-05-24T19:23:30.812Z,72.68
2018-05-24T19:25:58.800Z,72.84
2018-05-24T19:28:26.376Z,72.90
2018-05-24T19:30:53.953Z,72.89
2018-05-24T19:33:21.588Z,72.71
2018-05-24T19:35:49.149Z,72.76
2018-05-24T19:38:16.714Z,72.70
2018-05-24T19:40:44.646Z,73.52
2018-05-24T19:43:12.199Z,73.61
2018-05-24T19:45:39.792Z,73.43
2018-05-24T19:48:07.382Z,73.80
2018-05-24T19:50:34.947Z,70.94
2018-05-24T19:53:02.523Z,69.25
2018-05-24T19:55:30.560Z,69.16
2018-05-24T19:57:58.160Z,69.74
2018-05-24T20:00:25.752Z,70.19
2018-05-24T20:02:53.334Z,70.37
2018-05-24T20:05:20.896Z,70.86
2018-05-24T20:07:48.661Z,70.73
2018-05-24T20:10:16.233Z,70.90
2018-05-24T20:12:43.805Z,71.57
2018-05-24T20:15:11.461Z,72.07
2018-05-24T20:17:39.111Z,72.29
2018-05-24T20:20:06.733Z,72.58
2018-05-24T20:22:34.332Z,73.19
2018-05-24T20:25:01.895Z,73.41
2018-05-24T20:27:29.494Z,74.55
2018-05-24T20:29:57.113Z,74.04
2018-05-24T20:32:24.739Z,74.11
2018-05-24T20:34:52.362Z,73.99
2018-05-24T20:37:19.951Z,74.15
2018-05-24T20:39:47.511Z,74.34
2018-05-24T20:42:15.075Z,74.37
2018-05-24T20:44:43.017Z,74.46
2018-05-24T20:47:10.583Z,74.53
2018-05-24T20:49:38.140Z,74.28
2018-05-24T20:52:05.759Z,74.74
2018-05-24T20:54:33.323Z,74.76
2018-05-24T20:57:00.897Z,74.76
2018-05-24T20:59:28.647Z,74.91
2018-05-24T21:01:56.279Z,75.19
2018-05-24T21:04:23.857Z,75.83
2018-05-24T21:06:51.641Z,75.22
2018-05-24T21:09:19.212Z,75.36
2018-05-24T21:11:46.789Z,75.00
2018-05-24T21:14:14.372Z,74.91
2018-05-24T21:16:41.949Z,74.88
2018-05-24T21:19:09.517Z,74.92
2018-05-24T21:21:37.132Z,74.95
2018-05-24T21:24:04.695Z,75.02
2018-05-24T21:26:32.248Z,75.21
2018-05-24T21:29:00.155Z,75.43
2018-05-24T21:31:27.728Z,75.62
2018-05-24T21:33:55.292Z,75.40
2018-05-24T21:36:22.868Z,75.45
2018-05-24T21:38:50.418Z,75.59
2018-05-24T21:41:17.981Z,75.66
2018-05-24T21:43:45.722Z,75.61
2018-05-24T21:46:13.305Z,75.64
2018-05-24T21:48:41.797Z,75.56
2018-05-24T21:51:09.881Z,75.52
2018-05-24T21:53:37.440Z,75.53
2018-05-24T21:56:04.989Z,75.58
2018-05-24T21:58:32.734Z,75.65
2018-05-24T22:01:00.300Z,75.62
2018-05-24T22:03:27.856Z,75.48
2018-05-24T22:05:55.448Z,75.47
2018-05-24T22:08:22.995Z,75.49
2018-05-24T22:10:50.537Z,75.61
2018-05-24T22:13:18.260Z,75.68
2018-05-24T22:15:45.811Z,75.56
2018-05-24T22:18:13.358Z,75.43
2018-05-24T22:20:41.096Z,75.37
2018-05-24T22:23:08.648Z,75.36
2018-05-24T22:25:36.207Z,75.31
2018-05-24T22:28:03.811Z,75.31
2018-05-24T22:30:31.357Z,75.26
2018-05-24T22:32:58.929Z,75.42
2018-05-24T22:35:26.523Z,75.46
2018-05-24T22:37:54.061Z,75.48
2018-05-24T22:40:21.608Z,75.59
2018-05-24T22:42:49.320Z,75.81
2018-05-24T22:45:16.866Z,75.71
2018-05-24T22:47:44.413Z,75.74
2018-05-24T22:50:12.094Z,75.86
2018-05-24T22:52:39.640Z,75.97
2018-05-24T22:55:07.184Z,75.94
2018-05-24T22:57:34.894Z,75.90
2018-05-24T23:00:02.464Z,75.92
2018-05-24T23:02:30.000Z,75.90
2018-05-24T23:04:57.632Z,75.81
2018-05-24T23:07:25.166Z,76.08
2018-05-24T23:09:52.709Z,76.06
2018-05-24T23:12:20.404Z,76.22
2018-05-24T23:14:47.946Z,76.36
2018-05-24T23:17:15.492Z,76.51
2018-05-24T23:19:43.397Z,76.50
2018-05-24T23:22:11.796Z,76.49
2018-05-24T23:24:39.333Z,76.44
2018-05-24T23:27:07.024Z,76.37
2018-05-24T23:29:34.573Z,76.30
2018-05-24T23:32:02.127Z,76.35
2018-05-24T23:34:29.847Z,76.34
2018-05-24T23:36:57.441Z,76.41
2018-05-24T23:39:24.970Z,76.39
2018-05-24T23:41:52.862Z,76.52
2018-05-24T23:44:20.399Z,76.55
2018-05-24T23:46:47.939Z,76.66
2018-05-24T23:49:15.498Z,76.70
2018-05-24T23:51:43.032Z,76.70
2018-05-24T23:54:10.585Z,76.73
2018-05-24T23:56:38.160Z,76.64
2018-05-24T23:59:05.700Z,76.88
